createdAt,value
2023-04-18T00:00:09.661Z,412.00
2023-04-18T00:01:09.694Z,414.00
2023-04-18T00:02:09.675Z,413.00
2023-04-18T00:03:09.883Z,414.00
2023-04-18T00:04:09.902Z,414.00
2023-04-18T00:05:09.784Z,412.00
2023-04-18T00:06:09.705Z,411.00
2023-04-18T00:07:09.712Z,413.00
2023-04-18T00:08:09.708Z,412.00
2023-04-18T00:09:09.784Z,411.00
2023-04-18T00:10:09.748Z,411.00
2023-04-18T00:11:09.748Z,410.00
2023-04-18T00:12:09.741Z,410.00
2023-04-18T00:13:09.765Z,410.00
2023-04-18T00:14:09.769Z,412.00
2023-04-18T00:15:09.778Z,415.00
2023-04-18T00:16:09.781Z,414.00
2023-04-18T00:17:09.924Z,414.00
2023-04-18T00:18:09.937Z,414.00
2023-04-18T00:19:09.807Z,411.00
2023-04-18T00:20:09.816Z,408.00
2023-04-18T00:21:09.845Z,408.00
2023-04-18T00:22:09.868Z,408.00
2023-04-18T00:23:11.126Z,410.00
2023-04-18T00:24:09.882Z,411.00
2023-04-18T00:25:09.885Z,411.00
2023-04-18T00:26:09.890Z,412.00
2023-04-18T00:27:09.918Z,411.00
2023-04-18T00:28:09.914Z,413.00
2023-04-18T00:29:09.910Z,412.00
2023-04-18T00:30:09.914Z,411.00
2023-04-18T00:31:09.974Z,410.00
2023-04-18T00:32:09.929Z,412.00
2023-04-18T00:33:09.942Z,413.00
2023-04-18T00:34:09.916Z,413.00
2023-04-18T00:35:09.983Z,413.00
2023-04-18T00:36:10.018Z,415.00
2023-04-18T00:37:10.016Z,415.00
2023-04-18T00:38:10.037Z,413.00
2023-04-18T00:39:10.041Z,412.00
2023-04-18T00:40:09.999Z,410.00
2023-04-18T00:41:10.070Z,409.00
2023-04-18T00:42:10.064Z,412.00
2023-04-18T00:43:10.061Z,414.00
2023-04-18T00:44:10.078Z,416.00
2023-04-18T00:45:10.072Z,417.00
2023-04-18T00:46:10.183Z,417.00
2023-04-18T00:47:10.094Z,417.00
2023-04-18T00:48:10.111Z,416.00
2023-04-18T00:49:10.120Z,415.00
2023-04-18T00:50:10.104Z,414.00
2023-04-18T00:51:10.417Z,414.00
2023-04-18T00:52:10.134Z,413.00
2023-04-18T00:53:10.144Z,413.00
2023-04-18T00:54:10.140Z,414.00
2023-04-18T00:55:10.149Z,412.00
2023-04-18T00:56:10.152Z,410.00
2023-04-18T00:57:10.150Z,409.00
2023-04-18T00:58:10.173Z,409.00
2023-04-18T00:59:10.217Z,409.00
2023-04-18T01:00:10.208Z,409.00
2023-04-18T01:01:10.214Z,410.00
2023-04-18T01:02:10.210Z,411.00
2023-04-18T01:03:10.365Z,410.00
2023-04-18T01:04:10.350Z,410.00
2023-04-18T01:05:10.281Z,409.00
2023-04-18T01:06:10.256Z,409.00
2023-04-18T01:07:10.270Z,408.00
2023-04-18T01:08:10.273Z,408.00
2023-04-18T01:09:10.285Z,409.00
2023-04-18T01:10:10.314Z,407.00
2023-04-18T01:11:10.363Z,405.00
2023-04-18T01:12:10.392Z,405.00
2023-04-18T01:13:10.393Z,406.00
2023-04-18T01:14:10.427Z,406.00
2023-04-18T01:15:10.390Z,406.00
2023-04-18T01:16:10.443Z,405.00
2023-04-18T01:17:10.404Z,403.00
2023-04-18T01:18:10.409Z,402.00
2023-04-18T01:19:10.415Z,402.00
2023-04-18T01:20:10.423Z,401.00
2023-04-18T01:21:10.456Z,404.00
2023-04-18T01:22:10.472Z,406.00
2023-04-18T01:23:10.618Z,408.00
2023-04-18T01:24:10.651Z,408.00
2023-04-18T01:25:10.502Z,408.00
2023-04-18T01:26:10.565Z,408.00
2023-04-18T01:27:10.575Z,407.00
2023-04-18T01:28:10.583Z,409.00
2023-04-18T01:29:10.522Z,409.00
2023-04-18T01:30:10.611Z,408.00
2023-04-18T01:31:10.636Z,410.00
2023-04-18T01:32:10.601Z,410.00
2023-04-18T01:33:10.616Z,412.00
2023-04-18T01:34:10.731Z,413.00
2023-04-18T01:35:10.624Z,412.00
2023-04-18T01:36:10.661Z,413.00
2023-04-18T01:37:10.678Z,414.00
2023-04-18T01:38:10.684Z,412.00
2023-04-18T01:39:10.699Z,412.00
2023-04-18T01:40:10.700Z,411.00
2023-04-18T01:41:10.709Z,412.00
2023-04-18T01:42:10.775Z,413.00
2023-04-18T01:43:10.801Z,412.00
2023-04-18T01:44:10.808Z,411.00
2023-04-18T01:45:10.800Z,411.00
2023-04-18T01:46:10.782Z,411.00
2023-04-18T01:47:10.839Z,409.00
2023-04-18T01:48:10.816Z,407.00
2023-04-18T01:49:10.833Z,406.00
2023-04-18T01:50:10.835Z,406.00
2023-04-18T01:51:10.858Z,405.00
2023-04-18T01:52:10.887Z,405.00
2023-04-18T01:53:10.903Z,406.00
2023-04-18T01:54:10.956Z,408.00
2023-04-18T01:55:10.917Z,409.00
2023-04-18T01:56:10.931Z,411.00
2023-04-18T01:57:10.918Z,410.00
2023-04-18T01:58:10.921Z,411.00
2023-04-18T01:59:10.935Z,412.00
2023-04-18T02:00:10.949Z,412.00
2023-04-18T02:01:11.039Z,413.00
2023-04-18T02:02:11.063Z,410.00
2023-04-18T02:03:11.198Z,410.00
2023-04-18T02:04:11.069Z,408.00
2023-04-18T02:05:11.035Z,408.00
2023-04-18T02:06:11.042Z,408.00
2023-04-18T02:07:11.061Z,408.00
2023-04-18T02:08:11.102Z,409.00
2023-04-18T02:09:11.083Z,410.00
2023-04-18T02:10:11.121Z,412.00
2023-04-18T02:11:11.178Z,414.00
2023-04-18T02:12:11.181Z,413.00
2023-04-18T02:13:11.432Z,413.00
2023-04-18T02:14:11.369Z,411.00
2023-04-18T02:15:11.209Z,412.00
2023-04-18T02:16:11.292Z,414.00
2023-04-18T02:17:11.219Z,413.00
2023-04-18T02:18:11.215Z,411.00
2023-04-18T02:19:11.278Z,410.00
2023-04-18T02:20:11.296Z,408.00
2023-04-18T02:21:11.349Z,409.00
2023-04-18T02:22:11.352Z,410.00
2023-04-18T02:23:11.358Z,409.00
2023-04-18T02:24:11.509Z,408.00
2023-04-18T02:25:11.378Z,408.00
2023-04-18T02:26:11.440Z,412.00
2023-04-18T02:27:11.436Z,412.00
2023-04-18T02:28:11.439Z,412.00
2023-04-18T02:29:11.500Z,412.00
2023-04-18T02:30:11.541Z,413.00
2023-04-18T02:31:11.557Z,414.00
2023-04-18T02:32:11.608Z,414.00
2023-04-18T02:33:11.553Z,413.00
2023-04-18T02:34:11.866Z,413.00
2023-04-18T02:35:11.595Z,412.00
2023-04-18T02:36:11.598Z,412.00
2023-04-18T02:37:11.663Z,411.00
2023-04-18T02:38:11.693Z,410.00
2023-04-18T02:39:11.722Z,409.00
2023-04-18T02:40:11.721Z,408.00
2023-04-18T02:41:11.739Z,408.00
2023-04-18T02:42:11.938Z,409.00
2023-04-18T02:43:11.809Z,408.00
2023-04-18T02:44:12.119Z,408.00
2023-04-18T02:45:11.817Z,407.00
2023-04-18T02:46:11.896Z,406.00
2023-04-18T02:47:12.446Z,407.00
2023-04-18T02:48:11.944Z,408.00
2023-04-18T02:49:11.959Z,408.00
2023-04-18T02:50:11.952Z,407.00
2023-04-18T02:51:11.964Z,406.00
2023-04-18T02:52:12.017Z,405.00
2023-04-18T02:53:12.016Z,405.00
2023-04-18T02:54:12.228Z,405.00
2023-04-18T02:55:12.100Z,404.00
2023-04-18T02:56:12.099Z,404.00
2023-04-18T02:57:12.104Z,402.00
2023-04-18T02:58:12.174Z,403.00
2023-04-18T02:59:12.156Z,403.00
2023-04-18T03:00:12.230Z,403.00
2023-04-18T03:01:12.250Z,404.00
2023-04-18T03:02:12.290Z,404.00
2023-04-18T03:03:12.336Z,403.00
2023-04-18T03:04:12.540Z,404.00
2023-04-18T03:05:12.477Z,405.00
2023-04-18T03:06:12.367Z,407.00
2023-04-18T03:07:12.381Z,408.00
2023-04-18T03:08:12.434Z,407.00
2023-04-18T03:09:12.441Z,405.00
2023-04-18T03:10:12.439Z,403.00
2023-04-18T03:11:12.504Z,402.00
2023-04-18T03:12:12.519Z,403.00
2023-04-18T03:13:12.585Z,403.00
2023-04-18T03:14:12.787Z,403.00
2023-04-18T03:15:12.580Z,402.00
2023-04-18T03:16:12.725Z,401.00
2023-04-18T03:17:12.650Z,400.00
2023-04-18T03:18:12.721Z,399.00
2023-04-18T03:19:12.715Z,398.00
2023-04-18T03:20:12.708Z,399.00
2023-04-18T03:21:12.779Z,399.00
2023-04-18T03:22:12.780Z,398.00
2023-04-18T03:23:12.843Z,400.00
2023-04-18T03:24:12.824Z,401.00
2023-04-18T03:25:12.847Z,402.00
2023-04-18T03:26:12.864Z,404.00
2023-04-18T03:27:12.921Z,402.00
2023-04-18T03:28:12.953Z,402.00
2023-04-18T03:29:12.984Z,401.00
2023-04-18T03:30:12.986Z,400.00
2023-04-18T03:31:13.029Z,401.00
2023-04-18T03:32:13.079Z,400.00
2023-04-18T03:33:13.062Z,399.00
2023-04-18T03:34:13.344Z,401.00
2023-04-18T03:35:13.131Z,400.00
2023-04-18T03:36:13.183Z,399.00
2023-04-18T03:37:13.146Z,399.00
2023-04-18T03:38:13.249Z,399.00
2023-04-18T03:39:13.183Z,397.00
2023-04-18T03:40:13.215Z,395.00
2023-04-18T03:41:13.221Z,393.00
2023-04-18T03:42:13.278Z,392.00
2023-04-18T03:43:13.339Z,394.00
2023-04-18T03:44:13.516Z,395.00
2023-04-18T03:45:13.363Z,397.00
2023-04-18T03:46:13.476Z,399.00
2023-04-18T03:47:13.411Z,400.00
2023-04-18T03:48:13.414Z,400.00
2023-04-18T03:49:13.485Z,399.00
2023-04-18T03:50:13.489Z,400.00
2023-04-18T03:51:13.504Z,398.00
2023-04-18T03:52:13.500Z,395.00
2023-04-18T03:53:13.554Z,396.00
2023-04-18T03:54:13.809Z,396.00
2023-04-18T03:55:13.636Z,395.00
2023-04-18T03:56:13.703Z,393.00
2023-04-18T03:57:13.692Z,391.00
2023-04-18T03:58:13.748Z,391.00
2023-04-18T03:59:13.760Z,391.00
2023-04-18T04:00:13.764Z,391.00
2023-04-18T04:01:13.817Z,392.00
2023-04-18T04:02:13.899Z,392.00
2023-04-18T04:03:13.975Z,394.00
2023-04-18T04:04:14.262Z,394.00
2023-04-18T04:05:13.898Z,394.00
2023-04-18T04:06:13.965Z,397.00
2023-04-18T04:07:13.982Z,399.00
2023-04-18T04:08:14.015Z,402.00
2023-04-18T04:09:14.076Z,403.00
2023-04-18T04:10:14.091Z,404.00
2023-04-18T04:11:14.137Z,405.00
2023-04-18T04:12:14.150Z,406.00
2023-04-18T04:13:14.205Z,405.00
2023-04-18T04:14:14.353Z,405.00
2023-04-18T04:15:14.293Z,406.00
2023-04-18T04:16:14.369Z,405.00
2023-04-18T04:17:14.398Z,405.00
2023-04-18T04:18:14.448Z,406.00
2023-04-18T04:19:14.453Z,408.00
2023-04-18T04:20:14.504Z,409.00
2023-04-18T04:21:14.574Z,410.00
2023-04-18T04:22:14.638Z,410.00
2023-04-18T04:23:14.634Z,409.00
2023-04-18T04:24:14.909Z,409.00
2023-04-18T04:25:14.762Z,408.00
2023-04-18T04:26:14.813Z,410.00
2023-04-18T04:27:14.867Z,412.00
2023-04-18T04:28:14.923Z,414.00
2023-04-18T04:29:14.929Z,415.00
2023-04-18T04:30:14.993Z,417.00
2023-04-18T04:31:15.046Z,416.00
2023-04-18T04:32:15.076Z,417.00
2023-04-18T04:33:15.102Z,416.00
2023-04-18T04:34:15.326Z,414.00
2023-04-18T04:35:15.181Z,413.00
2023-04-18T04:36:17.290Z,412.00
2023-04-18T04:37:15.239Z,411.00
2023-04-18T04:38:15.367Z,412.00
2023-04-18T04:39:15.220Z,414.00
2023-04-18T04:40:15.214Z,413.00
2023-04-18T04:41:15.177Z,414.00
2023-04-18T04:42:15.171Z,414.00
2023-04-18T04:43:15.175Z,414.00
2023-04-18T04:44:15.518Z,414.00
2023-04-18T04:45:15.216Z,415.00
2023-04-18T04:46:15.171Z,412.00
2023-04-18T04:47:15.176Z,413.00
2023-04-18T04:48:15.116Z,412.00
2023-04-18T04:49:15.109Z,412.00
2023-04-18T04:50:15.132Z,411.00
2023-04-18T04:51:15.132Z,411.00
2023-04-18T04:52:15.138Z,412.00
2023-04-18T04:53:15.110Z,412.00
2023-04-18T04:54:15.247Z,413.00
2023-04-18T04:55:15.108Z,415.00
2023-04-18T04:56:15.104Z,415.00
2023-04-18T04:57:15.066Z,413.00
2023-04-18T04:58:15.075Z,413.00
2023-04-18T04:59:15.086Z,413.00
2023-04-18T05:00:15.032Z,413.00
2023-04-18T05:01:15.134Z,415.00
2023-04-18T05:02:15.197Z,415.00
2023-04-18T05:03:15.155Z,415.00
2023-04-18T05:04:15.501Z,415.00
2023-04-18T05:05:15.037Z,416.00
2023-04-18T05:06:15.022Z,416.00
2023-04-18T05:07:15.035Z,416.00
2023-04-18T05:08:15.201Z,415.00
2023-04-18T05:09:15.007Z,412.00
2023-04-18T05:10:15.003Z,411.00
2023-04-18T05:11:15.022Z,411.00
2023-04-18T05:12:14.976Z,413.00
2023-04-18T05:13:14.978Z,414.00
2023-04-18T05:14:15.220Z,417.00
2023-04-18T05:15:14.990Z,420.00
2023-04-18T05:16:14.961Z,422.00
2023-04-18T05:17:14.966Z,421.00
2023-04-18T05:18:15.014Z,421.00
2023-04-18T05:19:14.959Z,418.00
2023-04-18T05:20:15.099Z,419.00
2023-04-18T05:21:15.050Z,421.00
2023-04-18T05:22:15.133Z,422.00
2023-04-18T05:23:15.223Z,422.00
2023-04-18T05:24:15.471Z,423.00
2023-04-18T05:25:15.371Z,422.00
2023-04-18T05:26:15.414Z,424.00
2023-04-18T05:27:17.201Z,424.00
2023-04-18T05:28:15.460Z,424.00
2023-04-18T05:29:15.429Z,423.00
2023-04-18T05:30:15.439Z,434.00
2023-04-18T05:31:15.457Z,467.00
2023-04-18T05:32:15.429Z,474.00
2023-04-18T05:33:15.430Z,443.00
2023-04-18T05:34:15.722Z,444.00
2023-04-18T05:35:15.433Z,440.00
2023-04-18T05:36:15.384Z,453.00
2023-04-18T05:37:15.368Z,479.00
2023-04-18T05:38:15.400Z,469.00
2023-04-18T05:39:15.430Z,468.00
2023-04-18T05:40:15.363Z,470.00
2023-04-18T05:41:15.382Z,531.00
2023-04-18T05:42:15.375Z,551.00
2023-04-18T05:43:15.331Z,568.00
2023-04-18T05:44:15.531Z,621.00
2023-04-18T05:45:15.391Z,639.00
2023-04-18T05:46:15.366Z,643.00
2023-04-18T05:47:15.306Z,648.00
2023-04-18T05:48:15.400Z,664.00
2023-04-18T05:49:15.351Z,680.00
2023-04-18T05:50:15.327Z,714.00
2023-04-18T05:51:15.542Z,706.00
2023-04-18T05:52:15.258Z,703.00
2023-04-18T05:53:15.353Z,704.00
2023-04-18T05:54:15.438Z,682.00
2023-04-18T05:55:15.636Z,681.00
2023-04-18T05:56:15.271Z,684.00
2023-04-18T05:57:16.088Z,691.00
2023-04-18T05:58:15.280Z,692.00
2023-04-18T05:59:15.243Z,695.00
2023-04-18T06:00:15.286Z,694.00
2023-04-18T06:01:15.348Z,697.00
2023-04-18T06:02:15.306Z,702.00
2023-04-18T06:03:15.349Z,704.00
2023-04-18T06:04:15.598Z,704.00
2023-04-18T06:05:15.574Z,704.00
2023-04-18T06:06:15.203Z,703.00
2023-04-18T06:07:15.204Z,703.00
2023-04-18T06:08:15.205Z,699.00
2023-04-18T06:09:15.233Z,696.00
2023-04-18T06:10:15.160Z,700.00
2023-04-18T06:11:15.181Z,703.00
2023-04-18T06:12:15.182Z,705.00
2023-04-18T06:13:15.146Z,713.00
2023-04-18T06:14:15.442Z,716.00
2023-04-18T06:15:15.321Z,721.00
2023-04-18T06:16:15.264Z,728.00
2023-04-18T06:17:15.211Z,734.00
2023-04-18T06:18:15.178Z,733.00
2023-04-18T06:19:15.217Z,726.00
2023-04-18T06:20:15.309Z,719.00
2023-04-18T06:21:15.348Z,711.00
2023-04-18T06:22:15.850Z,712.00
2023-04-18T06:23:15.314Z,715.00
2023-04-18T06:24:15.633Z,714.00
2023-04-18T06:25:15.268Z,714.00
2023-04-18T06:26:15.289Z,715.00
2023-04-18T06:27:27.926Z,718.00
2023-04-18T06:28:16.493Z,720.00
2023-04-18T06:29:15.240Z,720.00
2023-04-18T06:30:15.257Z,720.00
2023-04-18T06:31:15.569Z,722.00
2023-04-18T06:32:15.210Z,723.00
2023-04-18T06:33:15.538Z,721.00
2023-04-18T06:34:15.597Z,722.00
2023-04-18T06:35:15.600Z,727.00
2023-04-18T06:36:15.250Z,730.00
2023-04-18T06:37:15.202Z,730.00
2023-04-18T06:38:15.164Z,727.00
2023-04-18T06:39:15.155Z,649.00
2023-04-18T06:40:15.581Z,727.00
2023-04-18T06:41:15.168Z,796.00
2023-04-18T06:42:15.146Z,785.00
2023-04-18T06:43:15.147Z,789.00
2023-04-18T06:44:15.346Z,801.00
2023-04-18T06:45:15.095Z,798.00
2023-04-18T06:46:18.137Z,832.00
2023-04-18T06:47:17.057Z,838.00
2023-04-18T06:48:15.124Z,845.00
2023-04-18T06:49:15.089Z,852.00
2023-04-18T06:50:15.118Z,857.00
2023-04-18T06:51:15.092Z,884.00
2023-04-18T06:52:15.354Z,881.00
2023-04-18T06:53:15.108Z,908.00
2023-04-18T06:54:15.254Z,912.00
2023-04-18T06:55:15.056Z,919.00
2023-04-18T06:56:15.075Z,924.00
2023-04-18T06:57:15.037Z,927.00
2023-04-18T06:58:15.045Z,934.00
2023-04-18T06:59:15.265Z,936.00
2023-04-18T07:00:15.090Z,938.00
2023-04-18T07:01:15.124Z,944.00
2023-04-18T07:02:15.181Z,946.00
2023-04-18T07:03:15.287Z,942.00
2023-04-18T07:04:15.639Z,942.00
2023-04-18T07:05:15.249Z,948.00
2023-04-18T07:06:15.281Z,952.00
2023-04-18T07:07:15.365Z,959.00
2023-04-18T07:08:15.420Z,961.00
2023-04-18T07:09:15.370Z,965.00
2023-04-18T07:10:15.368Z,968.00
2023-04-18T07:11:15.484Z,974.00
2023-04-18T07:12:15.456Z,974.00
2023-04-18T07:13:15.405Z,974.00
2023-04-18T07:14:15.618Z,977.00
2023-04-18T07:15:15.461Z,979.00
2023-04-18T07:16:15.727Z,982.00
2023-04-18T07:17:15.526Z,985.00
2023-04-18T07:18:23.267Z,986.00
2023-04-18T07:19:16.515Z,990.00
2023-04-18T07:20:15.498Z,992.00
2023-04-18T07:21:15.473Z,995.00
2023-04-18T07:22:15.527Z,994.00
2023-04-18T07:23:15.524Z,990.00
2023-04-18T07:24:15.646Z,988.00
2023-04-18T07:25:15.453Z,989.00
2023-04-18T07:26:15.472Z,987.00
2023-04-18T07:27:15.418Z,991.00
2023-04-18T07:28:15.476Z,995.00
2023-04-18T07:29:15.500Z,999.00
2023-04-18T07:30:15.576Z,1003.00
2023-04-18T07:31:16.134Z,1007.00
2023-04-18T07:32:15.563Z,1011.00
2023-04-18T07:33:15.535Z,865.00
2023-04-18T07:34:15.737Z,732.00
2023-04-18T07:35:15.571Z,730.00
2023-04-18T07:36:15.976Z,722.00
2023-04-18T07:37:15.405Z,744.00
2023-04-18T07:38:15.347Z,758.00
2023-04-18T07:39:15.380Z,818.00
2023-04-18T07:40:15.368Z,776.00
2023-04-18T07:41:15.377Z,811.00
2023-04-18T07:42:15.439Z,822.00
2023-04-18T07:43:15.352Z,825.00
2023-04-18T07:44:15.549Z,831.00
2023-04-18T07:45:15.396Z,839.00
2023-04-18T07:46:15.555Z,845.00
2023-04-18T07:47:15.409Z,851.00
2023-04-18T07:48:15.475Z,849.00
2023-04-18T07:49:15.687Z,857.00
2023-04-18T07:50:15.540Z,876.00
2023-04-18T07:51:15.562Z,878.00
2023-04-18T07:52:15.774Z,891.00
2023-04-18T07:53:15.824Z,895.00
2023-04-18T07:54:15.663Z,906.00
2023-04-18T07:55:16.406Z,917.00
2023-04-18T07:56:16.093Z,919.00
2023-04-18T07:57:15.684Z,925.00
2023-04-18T07:58:15.757Z,932.00
2023-04-18T07:59:16.086Z,932.00
2023-04-18T08:00:15.821Z,933.00
2023-04-18T08:01:15.774Z,932.00
2023-04-18T08:02:16.770Z,938.00
2023-04-18T08:03:16.202Z,944.00
2023-04-18T08:04:16.539Z,949.00
2023-04-18T08:05:16.096Z,949.00
2023-04-18T08:06:16.153Z,949.00
2023-04-18T08:07:16.168Z,954.00
2023-04-18T08:08:16.200Z,956.00
2023-04-18T08:09:16.413Z,962.00
2023-04-18T08:10:16.290Z,964.00
2023-04-18T08:11:16.365Z,972.00
2023-04-18T08:12:16.409Z,978.00
2023-04-18T08:13:16.468Z,983.00
2023-04-18T08:14:16.485Z,989.00
2023-04-18T08:15:16.597Z,987.00
2023-04-18T08:16:17.620Z,993.00
2023-04-18T08:17:16.662Z,996.00
2023-04-18T08:18:16.756Z,1000.00
2023-04-18T08:19:17.130Z,1004.00
2023-04-18T08:20:16.885Z,1008.00
2023-04-18T08:21:16.799Z,1011.00
2023-04-18T08:22:16.910Z,1013.00
2023-04-18T08:23:16.855Z,1016.00
2023-04-18T08:24:16.895Z,1021.00
2023-04-18T08:25:17.115Z,1024.00
2023-04-18T08:26:16.997Z,1028.00
2023-04-18T08:27:17.019Z,1028.00
2023-04-18T08:28:17.053Z,1013.00
2023-04-18T08:29:17.102Z,1005.00
2023-04-18T08:30:17.109Z,1004.00
2023-04-18T08:31:17.233Z,1000.00
2023-04-18T08:32:17.160Z,991.00
2023-04-18T08:33:17.203Z,982.00
2023-04-18T08:34:17.288Z,976.00
2023-04-18T08:35:17.282Z,970.00
2023-04-18T08:36:17.504Z,963.00
2023-04-18T08:37:17.362Z,954.00
2023-04-18T08:38:17.443Z,938.00
2023-04-18T08:39:17.474Z,926.00
2023-04-18T08:40:17.478Z,918.00
2023-04-18T08:41:17.547Z,905.00
2023-04-18T08:42:17.622Z,831.00
2023-04-18T08:43:17.651Z,768.00
2023-04-18T08:44:17.632Z,777.00
2023-04-18T08:45:17.712Z,774.00
2023-04-18T08:46:17.859Z,771.00
2023-04-18T08:47:17.851Z,790.00
2023-04-18T08:48:18.157Z,795.00
2023-04-18T08:49:17.880Z,822.00
2023-04-18T08:50:17.955Z,832.00
2023-04-18T08:51:18.069Z,842.00
2023-04-18T08:52:18.032Z,848.00
2023-04-18T08:53:18.279Z,854.00
2023-04-18T08:54:18.085Z,860.00
2023-04-18T08:55:18.132Z,864.00
2023-04-18T08:56:18.207Z,872.00
2023-04-18T08:57:18.208Z,879.00
2023-04-18T08:58:18.210Z,882.00
2023-04-18T08:59:18.330Z,884.00
2023-04-18T09:00:19.621Z,887.00
2023-04-18T09:01:18.348Z,891.00
2023-04-18T09:02:18.360Z,889.00
2023-04-18T09:03:18.432Z,890.00
2023-04-18T09:04:18.464Z,895.00
2023-04-18T09:05:18.386Z,898.00
2023-04-18T09:06:18.409Z,901.00
2023-04-18T09:07:18.508Z,907.00
2023-04-18T09:08:19.149Z,913.00
2023-04-18T09:09:18.695Z,918.00
2023-04-18T09:10:18.514Z,922.00
2023-04-18T09:11:18.508Z,915.00
2023-04-18T09:12:18.550Z,804.00
2023-04-18T09:13:18.557Z,727.00
2023-04-18T09:14:18.550Z,715.00
2023-04-18T09:15:18.633Z,724.00
2023-04-18T09:16:18.703Z,657.00
2023-04-18T09:17:18.791Z,641.00
2023-04-18T09:18:18.760Z,673.00
2023-04-18T09:19:19.103Z,713.00
2023-04-18T09:20:18.822Z,717.00
2023-04-18T09:21:18.917Z,723.00
2023-04-18T09:22:19.161Z,731.00
2023-04-18T09:23:19.007Z,734.00
2023-04-18T09:24:19.080Z,736.00
2023-04-18T09:25:19.115Z,743.00
2023-04-18T09:26:19.177Z,749.00
2023-04-18T09:27:19.654Z,753.00
2023-04-18T09:28:19.190Z,755.00
2023-04-18T09:29:19.299Z,761.00
2023-04-18T09:30:19.390Z,760.00
2023-04-18T09:31:19.456Z,763.00
2023-04-18T09:32:19.622Z,777.00
2023-04-18T09:33:19.530Z,784.00
2023-04-18T09:34:19.543Z,782.00
2023-04-18T09:35:19.597Z,792.00
2023-04-18T09:36:19.689Z,802.00
2023-04-18T09:37:19.664Z,805.00
2023-04-18T09:38:19.671Z,793.00
2023-04-18T09:39:19.762Z,782.00
2023-04-18T09:40:19.844Z,764.00
2023-04-18T09:41:21.484Z,732.00
2023-04-18T09:42:28.913Z,698.00
2023-04-18T09:43:19.837Z,687.00
2023-04-18T09:44:20.279Z,682.00
2023-04-18T09:45:19.892Z,674.00
2023-04-18T09:46:19.883Z,673.00
2023-04-18T09:47:19.823Z,665.00
2023-04-18T09:48:19.835Z,655.00
2023-04-18T09:49:19.893Z,642.00
2023-04-18T09:50:19.839Z,634.00
2023-04-18T09:51:19.917Z,627.00
2023-04-18T09:52:19.817Z,619.00
2023-04-18T09:53:20.950Z,614.00
2023-04-18T09:54:20.169Z,606.00
2023-04-18T09:55:19.809Z,595.00
2023-04-18T09:56:19.860Z,589.00
2023-04-18T09:57:19.731Z,583.00
2023-04-18T09:58:19.799Z,573.00
2023-04-18T09:59:21.234Z,565.00
2023-04-18T10:00:19.800Z,562.00
2023-04-18T10:01:19.769Z,559.00
2023-04-18T10:02:19.802Z,556.00
2023-04-18T10:03:19.860Z,552.00
2023-04-18T10:04:19.910Z,547.00
2023-04-18T10:05:21.192Z,541.00
2023-04-18T10:06:19.727Z,534.00
2023-04-18T10:07:19.732Z,529.00
2023-04-18T10:08:19.676Z,524.00
2023-04-18T10:09:19.762Z,521.00
2023-04-18T10:10:19.726Z,515.00
2023-04-18T10:11:20.300Z,511.00
2023-04-18T10:12:19.795Z,510.00
2023-04-18T10:13:19.735Z,509.00
2023-04-18T10:14:19.732Z,504.00
2023-04-18T10:15:20.171Z,502.00
2023-04-18T10:16:20.203Z,499.00
2023-04-18T10:17:19.652Z,496.00
2023-04-18T10:18:20.372Z,492.00
2023-04-18T10:19:19.693Z,486.00
2023-04-18T10:20:19.690Z,482.00
2023-04-18T10:21:19.669Z,478.00
2023-04-18T10:22:19.691Z,476.00
2023-04-18T10:23:19.651Z,476.00
2023-04-18T10:24:19.660Z,474.00
2023-04-18T10:25:19.878Z,471.00
2023-04-18T10:26:19.676Z,468.00
2023-04-18T10:27:20.449Z,467.00
2023-04-18T10:28:19.768Z,465.00
2023-04-18T10:29:19.690Z,466.00
2023-04-18T10:30:19.730Z,463.00
2023-04-18T10:31:19.748Z,462.00
2023-04-18T10:32:20.149Z,462.00
2023-04-18T10:33:29.431Z,459.00
2023-04-18T10:34:20.957Z,457.00
2023-04-18T10:35:19.724Z,457.00
2023-04-18T10:36:19.687Z,457.00
2023-04-18T10:37:19.715Z,453.00
2023-04-18T10:38:20.170Z,453.00
2023-04-18T10:39:19.824Z,451.00
2023-04-18T10:40:19.710Z,448.00
2023-04-18T10:41:19.701Z,447.00
2023-04-18T10:42:19.700Z,447.00
2023-04-18T10:43:19.634Z,448.00
2023-04-18T10:44:19.671Z,446.00
2023-04-18T10:45:19.760Z,444.00
2023-04-18T10:46:31.003Z,439.00
2023-04-18T10:47:20.799Z,438.00
2023-04-18T10:48:19.702Z,437.00
2023-04-18T10:49:19.644Z,436.00
2023-04-18T10:50:19.632Z,435.00
2023-04-18T10:51:19.650Z,435.00
2023-04-18T10:52:19.663Z,435.00
2023-04-18T10:53:19.650Z,436.00
2023-04-18T10:54:19.600Z,436.00
2023-04-18T10:55:19.560Z,434.00
2023-04-18T10:56:19.584Z,433.00
2023-04-18T10:57:19.598Z,435.00
2023-04-18T10:58:19.579Z,434.00
2023-04-18T10:59:19.608Z,435.00
2023-04-18T11:00:19.665Z,433.00
2023-04-18T11:01:19.636Z,433.00
2023-04-18T11:02:19.581Z,432.00
2023-04-18T11:03:19.697Z,435.00
2023-04-18T11:04:20.153Z,434.00
2023-04-18T11:05:19.697Z,433.00
2023-04-18T11:06:19.686Z,432.00
2023-04-18T11:07:19.802Z,430.00
2023-04-18T11:08:19.810Z,426.00
2023-04-18T11:09:19.862Z,426.00
2023-04-18T11:10:19.912Z,425.00
2023-04-18T11:11:19.922Z,424.00
2023-04-18T11:12:19.992Z,422.00
2023-04-18T11:13:20.004Z,424.00
2023-04-18T11:14:20.100Z,424.00
2023-04-18T11:15:20.119Z,427.00
2023-04-18T11:16:20.234Z,424.00
2023-04-18T11:17:20.156Z,423.00
2023-04-18T11:18:20.195Z,419.00
2023-04-18T11:19:20.699Z,420.00
2023-04-18T11:20:20.298Z,421.00
2023-04-18T11:21:20.375Z,420.00
2023-04-18T11:22:20.382Z,422.00
2023-04-18T11:23:20.499Z,422.00
2023-04-18T11:24:20.422Z,423.00
2023-04-18T11:25:20.699Z,423.00
2023-04-18T11:26:20.534Z,423.00
2023-04-18T11:27:20.657Z,424.00
2023-04-18T11:28:20.623Z,424.00
2023-04-18T11:29:20.665Z,424.00
2023-04-18T11:30:20.772Z,423.00
2023-04-18T11:31:20.838Z,425.00
2023-04-18T11:32:20.954Z,425.00
2023-04-18T11:33:20.877Z,423.00
2023-04-18T11:34:20.896Z,423.00
2023-04-18T11:35:21.023Z,424.00
2023-04-18T11:36:21.041Z,422.00
2023-04-18T11:37:21.087Z,421.00
2023-04-18T11:38:23.279Z,419.00
2023-04-18T11:39:21.139Z,419.00
2023-04-18T11:40:21.146Z,420.00
2023-04-18T11:41:21.166Z,419.00
2023-04-18T11:42:21.150Z,419.00
2023-04-18T11:43:21.135Z,418.00
2023-04-18T11:44:21.121Z,418.00
2023-04-18T11:45:21.138Z,418.00
2023-04-18T11:46:21.103Z,418.00
2023-04-18T11:47:21.186Z,418.00
2023-04-18T11:48:21.097Z,416.00
2023-04-18T11:49:21.056Z,417.00
2023-04-18T11:50:21.060Z,415.00
2023-04-18T11:51:21.033Z,415.00
2023-04-18T11:52:21.086Z,416.00
2023-04-18T11:53:21.088Z,416.00
2023-04-18T11:54:21.010Z,415.00
2023-04-18T11:55:21.049Z,415.00
2023-04-18T11:56:21.006Z,415.00
2023-04-18T11:57:21.000Z,415.00
2023-04-18T11:58:21.016Z,414.00
2023-04-18T11:59:21.043Z,417.00
2023-04-18T12:00:21.082Z,418.00
2023-04-18T12:01:21.043Z,420.00
2023-04-18T12:02:21.091Z,419.00
2023-04-18T12:03:21.126Z,419.00
2023-04-18T12:04:21.534Z,420.00
2023-04-18T12:05:21.861Z,419.00
2023-04-18T12:06:21.005Z,418.00
2023-04-18T12:07:20.978Z,418.00
2023-04-18T12:08:21.006Z,417.00
2023-04-18T12:09:20.925Z,416.00
2023-04-18T12:10:20.929Z,416.00
2023-04-18T12:11:20.945Z,416.00
2023-04-18T12:12:20.957Z,418.00
2023-04-18T12:13:20.936Z,419.00
2023-04-18T12:14:20.916Z,421.00
2023-04-18T12:15:20.934Z,420.00
2023-04-18T12:16:20.952Z,419.00
2023-04-18T12:17:20.918Z,418.00
2023-04-18T12:18:20.890Z,415.00
2023-04-18T12:19:20.929Z,413.00
2023-04-18T12:20:21.035Z,414.00
2023-04-18T12:21:20.861Z,415.00
2023-04-18T12:22:20.911Z,415.00
2023-04-18T12:23:20.980Z,415.00
2023-04-18T12:24:21.315Z,414.00
2023-04-18T12:25:21.576Z,413.00
2023-04-18T12:26:21.124Z,412.00
2023-04-18T12:27:21.153Z,411.00